Tropical Cyclones
[Index]
Main Index Home Page Stock Weather Photos Extreme Storms Discussion Storm News and Storm Chasing Reports Tropical Cyclones / Hurricanes / Typhoons Weather Data and Links Wild Fires / Bushfires Weather Observation Techniques Weather Picture Catalogue Tornado Pictures and Reports Stock Video Footage and DVDs for sale
Season 1996-1997 Tropical Cyclone DRENA Track Map
Season 1996-1997 Summaries: [BoM-AU] [JTWC-AU] [JTWC-SIO] [JTWC-SPAC] [JTWC-SH]
<<- Previous TC | JTWC 1996-1997 Season | Next TC ->>

click for intensity scale information  Lat/long Grid: Show Hide

 Date Labels: Show Hide

Joint Typhoon Warning Centre Cyclone Data

Name: DRENA

01 Jan 1997 00:00 UTC to 11 Jan 1997 12:00 UTC

    date/time    lat    long     hPa   cat  kts
1997-01-01 00   10.3   175.5                  15          
1997-01-01 06   10.3   174.6                  20          
1997-01-01 12   10.4   173.7                  20          
1997-01-01 18   10.8   172.5                  20          
1997-01-02 00   11.3   171.2                  25          
1997-01-02 06   12.1   170.0                  25          
1997-01-02 12   12.8   168.8                  30          
1997-01-02 18   13.5   167.7                  35          
1997-01-03 00   14.1   166.5                  35          
1997-01-03 06   14.4   165.2                  35          
1997-01-03 12   14.6   164.1            1     40          
1997-01-03 18   14.8   163.0            1     50          
1997-01-04 00   15.0   161.9            2     60          
1997-01-04 06   15.0   161.0            2     70          
1997-01-04 12   15.0   160.3            3     80          
1997-01-04 18   15.1   159.8            3     90          
1997-01-05 00   15.2   159.5            4    105          
1997-01-05 06   15.5   159.2            4    120          
1997-01-05 12   15.9   159.0            4    120          
1997-01-05 18   16.2   158.8            4    120          
1997-01-06 00   16.6   158.7            4    120          
1997-01-06 06   17.0   158.9            4    115          
1997-01-06 12   17.5   159.4            4    110          
1997-01-06 18   18.0   160.2            4    105          
1997-01-07 00   18.3   161.1            4    105          
1997-01-07 06   19.0   162.0            4    100          
1997-01-07 12   20.0   163.2            4    100          
1997-01-07 18   21.1   164.3            3     95          
1997-01-08 00   21.9   165.2            3     90          
1997-01-08 06   22.7   166.1            3     80          
1997-01-08 12   24.0   167.0            2     70          
1997-01-08 18   25.5   167.6            2     65          
1997-01-09 00   27.3   167.9            2     60          
1997-01-09 06   28.9   168.4            2     55          
1997-01-09 12   30.5   168.6            2     55          
1997-01-09 18   32.1   169.0            2     55          
1997-01-10 00   33.7   169.5            1     50          
1997-01-10 06   35.3   170.3            1     50          
1997-01-10 12   36.7   171.4            1     45          
1997-01-10 18   38.2   172.7            1     45          
1997-01-11 00   40.1   173.8            1     40          
1997-01-11 06   42.4   174.6            1     40          
1997-01-11 12   45.1   175.4            1     40          
Winds are 1-min average.

Tropical cyclone tracks developed by Michael Bath using data from the Joint Typhoon Warning Centre Best Tracks and Google Maps.


[Australian Severe Weather index] [Copyright Notice] [Email Contacts] [Search This Site] [Privacy Policy]
Document: tropical_cyclone_drena.htm Updated: 18 September 2016